sensor_id;sensor_type;location;lat;lon;timestamp;P1;durP1;ratioP1;P2;durP2;ratioP2
44774;SDS011;31340;51.402;0.016;2023-02-15T00:00:06;62.97;;;32.30;;
44774;SDS011;31340;51.402;0.016;2023-02-15T00:02:38;65.05;;;34.78;;
44774;SDS011;31340;51.402;0.016;2023-02-15T00:05:06;61.47;;;33.15;;
44774;SDS011;31340;51.402;0.016;2023-02-15T00:07:34;76.72;;;37.92;;
44774;SDS011;31340;51.402;0.016;2023-02-15T00:10:02;74.57;;;39.42;;
44774;SDS011;31340;51.402;0.016;2023-02-15T00:12:30;73.18;;;35.65;;
44774;SDS011;31340;51.402;0.016;2023-02-15T00:14:58;67.45;;;36.00;;
44774;SDS011;31340;51.402;0.016;2023-02-15T00:17:27;71.13;;;37.45;;
44774;SDS011;31340;51.402;0.016;2023-02-15T00:19:55;73.32;;;38.75;;
44774;SDS011;31340;51.402;0.016;2023-02-15T00:22:22;74.88;;;40.22;;
44774;SDS011;31340;51.402;0.016;2023-02-15T00:24:52;83.20;;;41.75;;
44774;SDS011;31340;51.402;0.016;2023-02-15T00:27:20;71.75;;;38.40;;
44774;SDS011;31340;51.402;0.016;2023-02-15T00:29:48;84.97;;;41.40;;
44774;SDS011;31340;51.402;0.016;2023-02-15T00:32:16;79.05;;;39.92;;
44774;SDS011;31340;51.402;0.016;2023-02-15T00:34:44;79.55;;;40.13;;
44774;SDS011;31340;51.402;0.016;2023-02-15T00:37:12;71.28;;;37.20;;
44774;SDS011;31340;51.402;0.016;2023-02-15T00:39:40;75.70;;;40.03;;
44774;SDS011;31340;51.402;0.016;2023-02-15T00:42:08;78.65;;;39.85;;
44774;SDS011;31340;51.402;0.016;2023-02-15T00:44:35;73.15;;;38.33;;
44774;SDS011;31340;51.402;0.016;2023-02-15T00:47:03;73.55;;;38.22;;
44774;SDS011;31340;51.402;0.016;2023-02-15T00:49:31;73.00;;;38.55;;
44774;SDS011;31340;51.402;0.016;2023-02-15T00:51:59;72.20;;;37.63;;
44774;SDS011;31340;51.402;0.016;2023-02-15T00:54:27;80.38;;;39.38;;
44774;SDS011;31340;51.402;0.016;2023-02-15T00:56:56;78.78;;;39.60;;
44774;SDS011;31340;51.402;0.016;2023-02-15T00:59:23;79.85;;;40.03;;
44774;SDS011;31340;51.402;0.016;2023-02-15T01:01:51;76.47;;;40.45;;
44774;SDS011;31340;51.402;0.016;2023-02-15T01:04:19;73.32;;;38.15;;
44774;SDS011;31340;51.402;0.016;2023-02-15T01:06:47;77.90;;;39.65;;
44774;SDS011;31340;51.402;0.016;2023-02-15T01:09:15;72.15;;;38.85;;
44774;SDS011;31340;51.402;0.016;2023-02-15T01:11:43;78.55;;;41.33;;
44774;SDS011;31340;51.402;0.016;2023-02-15T01:14:11;73.22;;;37.88;;
44774;SDS011;31340;51.402;0.016;2023-02-15T01:16:41;74.22;;;38.28;;
44774;SDS011;31340;51.402;0.016;2023-02-15T01:19:09;77.65;;;40.13;;
44774;SDS011;31340;51.402;0.016;2023-02-15T01:21:36;81.65;;;40.63;;
44774;SDS011;31340;51.402;0.016;2023-02-15T01:24:04;73.93;;;39.42;;
44774;SDS011;31340;51.402;0.016;2023-02-15T01:26:32;73.15;;;38.65;;
44774;SDS011;31340;51.402;0.016;2023-02-15T01:28:59;72.85;;;38.78;;
44774;SDS011;31340;51.402;0.016;2023-02-15T01:31:27;77.88;;;40.00;;
44774;SDS011;31340;51.402;0.016;2023-02-15T01:33:55;72.63;;;39.65;;
44774;SDS011;31340;51.402;0.016;2023-02-15T01:36:22;81.95;;;40.22;;
44774;SDS011;31340;51.402;0.016;2023-02-15T01:38:51;77.63;;;39.60;;
44774;SDS011;31340;51.402;0.016;2023-02-15T01:41:19;71.82;;;38.92;;
44774;SDS011;31340;51.402;0.016;2023-02-15T01:43:48;76.13;;;42.33;;
44774;SDS011;31340;51.402;0.016;2023-02-15T01:46:19;75.97;;;39.95;;
44774;SDS011;31340;51.402;0.016;2023-02-15T01:48:51;76.70;;;39.30;;
44774;SDS011;31340;51.402;0.016;2023-02-15T01:51:23;87.25;;;42.80;;
44774;SDS011;31340;51.402;0.016;2023-02-15T01:56:25;76.07;;;39.33;;
44774;SDS011;31340;51.402;0.016;2023-02-15T01:58:58;76.18;;;40.30;;
44774;SDS011;31340;51.402;0.016;2023-02-15T02:01:30;80.07;;;41.05;;
44774;SDS011;31340;51.402;0.016;2023-02-15T02:04:02;80.30;;;40.55;;
44774;SDS011;31340;51.402;0.016;2023-02-15T02:06:32;76.63;;;39.85;;
44774;SDS011;31340;51.402;0.016;2023-02-15T02:09:03;73.32;;;40.00;;
44774;SDS011;31340;51.402;0.016;2023-02-15T02:11:31;75.53;;;39.08;;
44774;SDS011;31340;51.402;0.016;2023-02-15T02:14:00;82.03;;;41.47;;
44774;SDS011;31340;51.402;0.016;2023-02-15T02:16:43;75.15;;;39.42;;
44774;SDS011;31340;51.402;0.016;2023-02-15T02:22:31;83.00;;;41.58;;
44774;SDS011;31340;51.402;0.016;2023-02-15T02:25:34;78.97;;;40.22;;
44774;SDS011;31340;51.402;0.016;2023-02-15T02:36:34;80.03;;;40.90;;
44774;SDS011;31340;51.402;0.016;2023-02-15T02:39:25;76.30;;;40.78;;
44774;SDS011;31340;51.402;0.016;2023-02-15T02:42:10;83.70;;;40.90;;
44774;SDS011;31340;51.402;0.016;2023-02-15T02:44:54;76.70;;;41.05;;
44774;SDS011;31340;51.402;0.016;2023-02-15T02:47:49;82.93;;;42.67;;
44774;SDS011;31340;51.402;0.016;2023-02-15T02:50:23;85.38;;;41.95;;
44774;SDS011;31340;51.402;0.016;2023-02-15T02:52:54;80.18;;;41.50;;
44774;SDS011;31340;51.402;0.016;2023-02-15T02:55:35;85.43;;;42.37;;
44774;SDS011;31340;51.402;0.016;2023-02-15T02:58:18;79.70;;;42.00;;
44774;SDS011;31340;51.402;0.016;2023-02-15T03:00:54;81.15;;;42.42;;
44774;SDS011;31340;51.402;0.016;2023-02-15T03:06:09;86.35;;;43.85;;
44774;SDS011;31340;51.402;0.016;2023-02-15T03:08:47;93.35;;;48.13;;
44774;SDS011;31340;51.402;0.016;2023-02-15T03:11:18;85.07;;;43.63;;
44774;SDS011;31340;51.402;0.016;2023-02-15T03:13:47;84.53;;;43.45;;
44774;SDS011;31340;51.402;0.016;2023-02-15T03:16:16;80.53;;;42.45;;
44774;SDS011;31340;51.402;0.016;2023-02-15T03:19:01;84.38;;;43.53;;
44774;SDS011;31340;51.402;0.016;2023-02-15T03:21:53;82.13;;;42.17;;
44774;SDS011;31340;51.402;0.016;2023-02-15T03:24:32;79.82;;;40.90;;
44774;SDS011;31340;51.402;0.016;2023-02-15T03:27:06;78.70;;;41.65;;
44774;SDS011;31340;51.402;0.016;2023-02-15T03:29:38;80.95;;;41.13;;
44774;SDS011;31340;51.402;0.016;2023-02-15T03:32:07;74.32;;;40.53;;
44774;SDS011;31340;51.402;0.016;2023-02-15T03:34:38;78.80;;;40.58;;
44774;SDS011;31340;51.402;0.016;2023-02-15T03:37:10;74.72;;;40.33;;
44774;SDS011;31340;51.402;0.016;2023-02-15T03:42:33;71.82;;;39.42;;
44774;SDS011;31340;51.402;0.016;2023-02-15T03:45:10;84.60;;;41.40;;
44774;SDS011;31340;51.402;0.016;2023-02-15T03:47:46;79.68;;;41.75;;
44774;SDS011;31340;51.402;0.016;2023-02-15T03:50:37;75.93;;;38.70;;
44774;SDS011;31340;51.402;0.016;2023-02-15T03:53:23;75.88;;;39.00;;
44774;SDS011;31340;51.402;0.016;2023-02-15T03:55:53;78.90;;;40.85;;
44774;SDS011;31340;51.402;0.016;2023-02-15T03:58:21;80.28;;;40.78;;
44774;SDS011;31340;51.402;0.016;2023-02-15T04:01:13;77.05;;;40.72;;
44774;SDS011;31340;51.402;0.016;2023-02-15T04:04:25;76.82;;;40.67;;
44774;SDS011;31340;51.402;0.016;2023-02-15T04:07:05;76.05;;;39.00;;
44774;SDS011;31340;51.402;0.016;2023-02-15T04:09:34;91.28;;;44.83;;
44774;SDS011;31340;51.402;0.016;2023-02-15T04:12:20;92.82;;;47.63;;
44774;SDS011;31340;51.402;0.016;2023-02-15T04:14:48;106.57;;;52.63;;
44774;SDS011;31340;51.402;0.016;2023-02-15T04:17:35;97.97;;;47.25;;
44774;SDS011;31340;51.402;0.016;2023-02-15T04:20:04;106.82;;;49.63;;
44774;SDS011;31340;51.402;0.016;2023-02-15T04:22:50;115.57;;;55.00;;
44774;SDS011;31340;51.402;0.016;2023-02-15T04:25:36;112.75;;;55.50;;
44774;SDS011;31340;51.402;0.016;2023-02-15T04:28:03;113.82;;;53.03;;
44774;SDS011;31340;51.402;0.016;2023-02-15T04:30:31;128.57;;;59.22;;
44774;SDS011;31340;51.402;0.016;2023-02-15T04:32:58;128.50;;;60.20;;
44774;SDS011;31340;51.402;0.016;2023-02-15T04:35:26;116.32;;;56.42;;
44774;SDS011;31340;51.402;0.016;2023-02-15T04:37:53;123.40;;;58.38;;
44774;SDS011;31340;51.402;0.016;2023-02-15T04:40:22;122.95;;;56.50;;
44774;SDS011;31340;51.402;0.016;2023-02-15T04:42:50;114.13;;;56.25;;
44774;SDS011;31340;51.402;0.016;2023-02-15T04:45:18;123.00;;;55.72;;
44774;SDS011;31340;51.402;0.016;2023-02-15T04:47:46;131.02;;;61.38;;
44774;SDS011;31340;51.402;0.016;2023-02-15T04:50:13;134.77;;;64.25;;
44774;SDS011;31340;51.402;0.016;2023-02-15T04:52:41;134.00;;;63.53;;
44774;SDS011;31340;51.402;0.016;2023-02-15T04:55:09;136.02;;;63.95;;
44774;SDS011;31340;51.402;0.016;2023-02-15T04:57:37;135.75;;;62.63;;
44774;SDS011;31340;51.402;0.016;2023-02-15T05:00:05;142.00;;;64.72;;
44774;SDS011;31340;51.402;0.016;2023-02-15T05:02:33;148.43;;;65.35;;
44774;SDS011;31340;51.402;0.016;2023-02-15T05:05:01;133.18;;;64.07;;
44774;SDS011;31340;51.402;0.016;2023-02-15T05:07:29;144.40;;;65.88;;
44774;SDS011;31340;51.402;0.016;2023-02-15T05:09:56;137.70;;;65.03;;
44774;SDS011;31340;51.402;0.016;2023-02-15T05:12:24;140.65;;;65.03;;
44774;SDS011;31340;51.402;0.016;2023-02-15T05:14:52;137.27;;;66.05;;
44774;SDS011;31340;51.402;0.016;2023-02-15T05:17:20;140.77;;;63.78;;
44774;SDS011;31340;51.402;0.016;2023-02-15T05:19:48;132.35;;;64.40;;
44774;SDS011;31340;51.402;0.016;2023-02-15T05:25:25;125.35;;;61.30;;
44774;SDS011;31340;51.402;0.016;2023-02-15T05:28:15;134.30;;;64.85;;
44774;SDS011;31340;51.402;0.016;2023-02-15T05:31:04;135.98;;;63.67;;
44774;SDS011;31340;51.402;0.016;2023-02-15T05:33:44;132.85;;;62.88;;
44774;SDS011;31340;51.402;0.016;2023-02-15T05:36:31;136.70;;;62.57;;
44774;SDS011;31340;51.402;0.016;2023-02-15T05:38:59;124.13;;;61.08;;
44774;SDS011;31340;51.402;0.016;2023-02-15T05:41:43;133.95;;;62.78;;
44774;SDS011;31340;51.402;0.016;2023-02-15T05:44:11;126.97;;;60.50;;
44774;SDS011;31340;51.402;0.016;2023-02-15T05:46:39;127.43;;;62.88;;
44774;SDS011;31340;51.402;0.016;2023-02-15T05:49:08;131.00;;;63.20;;
44774;SDS011;31340;51.402;0.016;2023-02-15T05:51:41;132.98;;;60.97;;
44774;SDS011;31340;51.402;0.016;2023-02-15T05:54:09;138.80;;;64.97;;
44774;SDS011;31340;51.402;0.016;2023-02-15T05:56:41;129.15;;;63.78;;
44774;SDS011;31340;51.402;0.016;2023-02-15T05:59:15;136.63;;;63.20;;
44774;SDS011;31340;51.402;0.016;2023-02-15T06:01:44;122.90;;;61.22;;
44774;SDS011;31340;51.402;0.016;2023-02-15T06:04:17;123.90;;;58.80;;
44774;SDS011;31340;51.402;0.016;2023-02-15T06:06:48;129.32;;;62.38;;
44774;SDS011;31340;51.402;0.016;2023-02-15T06:09:24;124.18;;;60.63;;
44774;SDS011;31340;51.402;0.016;2023-02-15T06:11:58;124.80;;;61.58;;
44774;SDS011;31340;51.402;0.016;2023-02-15T06:14:28;119.28;;;59.72;;
44774;SDS011;31340;51.402;0.016;2023-02-15T06:16:59;126.07;;;60.55;;
44774;SDS011;31340;51.402;0.016;2023-02-15T06:19:27;132.13;;;61.17;;
44774;SDS011;31340;51.402;0.016;2023-02-15T06:21:57;128.15;;;62.28;;
44774;SDS011;31340;51.402;0.016;2023-02-15T06:24:28;124.10;;;60.42;;
44774;SDS011;31340;51.402;0.016;2023-02-15T06:26:56;119.70;;;59.67;;
44774;SDS011;31340;51.402;0.016;2023-02-15T06:29:26;110.88;;;56.35;;
44774;SDS011;31340;51.402;0.016;2023-02-15T06:31:57;119.97;;;58.92;;
44774;SDS011;31340;51.402;0.016;2023-02-15T06:34:25;117.10;;;58.90;;
44774;SDS011;31340;51.402;0.016;2023-02-15T06:37:29;118.25;;;55.97;;
44774;SDS011;31340;51.402;0.016;2023-02-15T06:40:03;117.57;;;57.28;;
44774;SDS011;31340;51.402;0.016;2023-02-15T06:42:31;114.65;;;56.30;;
44774;SDS011;31340;51.402;0.016;2023-02-15T06:45:00;104.78;;;54.47;;
44774;SDS011;31340;51.402;0.016;2023-02-15T06:47:28;105.07;;;53.90;;
44774;SDS011;31340;51.402;0.016;2023-02-15T06:49:59;110.22;;;55.65;;
44774;SDS011;31340;51.402;0.016;2023-02-15T06:52:29;107.60;;;52.00;;
44774;SDS011;31340;51.402;0.016;2023-02-15T06:55:15;105.53;;;54.60;;
44774;SDS011;31340;51.402;0.016;2023-02-15T06:57:43;114.53;;;55.50;;
44774;SDS011;31340;51.402;0.016;2023-02-15T07:00:12;115.38;;;56.03;;
44774;SDS011;31340;51.402;0.016;2023-02-15T07:02:54;103.22;;;52.92;;
44774;SDS011;31340;51.402;0.016;2023-02-15T07:05:25;110.55;;;55.95;;
44774;SDS011;31340;51.402;0.016;2023-02-15T07:08:02;109.75;;;54.40;;
44774;SDS011;31340;51.402;0.016;2023-02-15T07:10:38;109.80;;;54.77;;
44774;SDS011;31340;51.402;0.016;2023-02-15T07:13:18;115.88;;;57.88;;
44774;SDS011;31340;51.402;0.016;2023-02-15T07:15:47;117.80;;;57.80;;
44774;SDS011;31340;51.402;0.016;2023-02-15T07:18:18;120.30;;;59.47;;
44774;SDS011;31340;51.402;0.016;2023-02-15T07:20:52;115.65;;;56.42;;
44774;SDS011;31340;51.402;0.016;2023-02-15T07:25:58;109.07;;;54.38;;
44774;SDS011;31340;51.402;0.016;2023-02-15T07:28:30;108.60;;;54.40;;
44774;SDS011;31340;51.402;0.016;2023-02-15T07:31:03;110.85;;;53.80;;
44774;SDS011;31340;51.402;0.016;2023-02-15T07:33:34;112.90;;;53.33;;
44774;SDS011;31340;51.402;0.016;2023-02-15T07:36:04;108.63;;;54.35;;
44774;SDS011;31340;51.402;0.016;2023-02-15T07:38:52;115.30;;;53.37;;
44774;SDS011;31340;51.402;0.016;2023-02-15T07:41:19;103.13;;;51.08;;
44774;SDS011;31340;51.402;0.016;2023-02-15T07:43:47;111.57;;;54.78;;
44774;SDS011;31340;51.402;0.016;2023-02-15T07:46:15;116.45;;;56.33;;
44774;SDS011;31340;51.402;0.016;2023-02-15T07:48:45;109.70;;;55.25;;
44774;SDS011;31340;51.402;0.016;2023-02-15T07:51:13;115.88;;;57.80;;
44774;SDS011;31340;51.402;0.016;2023-02-15T07:53:52;116.35;;;55.70;;
44774;SDS011;31340;51.402;0.016;2023-02-15T07:58:58;111.75;;;51.38;;
44774;SDS011;31340;51.402;0.016;2023-02-15T08:01:34;107.50;;;54.38;;
44774;SDS011;31340;51.402;0.016;2023-02-15T08:04:05;105.15;;;52.92;;
44774;SDS011;31340;51.402;0.016;2023-02-15T08:06:42;103.80;;;52.95;;
44774;SDS011;31340;51.402;0.016;2023-02-15T08:09:14;104.55;;;53.15;;
44774;SDS011;31340;51.402;0.016;2023-02-15T08:11:46;103.20;;;52.65;;
44774;SDS011;31340;51.402;0.016;2023-02-15T08:14:18;99.13;;;50.67;;
44774;SDS011;31340;51.402;0.016;2023-02-15T08:21:59;101.18;;;49.35;;
44774;SDS011;31340;51.402;0.016;2023-02-15T08:24:40;90.72;;;48.65;;
44774;SDS011;31340;51.402;0.016;2023-02-15T08:27:11;97.55;;;48.05;;
44774;SDS011;31340;51.402;0.016;2023-02-15T08:29:41;90.68;;;46.25;;
44774;SDS011;31340;51.402;0.016;2023-02-15T08:32:13;93.53;;;48.97;;
44774;SDS011;31340;51.402;0.016;2023-02-15T08:34:46;94.07;;;48.67;;
44774;SDS011;31340;51.402;0.016;2023-02-15T08:37:20;101.40;;;51.15;;
44774;SDS011;31340;51.402;0.016;2023-02-15T08:39:49;93.38;;;48.35;;
44774;SDS011;31340;51.402;0.016;2023-02-15T08:42:16;94.88;;;47.45;;
44774;SDS011;31340;51.402;0.016;2023-02-15T08:44:58;95.20;;;47.67;;
44774;SDS011;31340;51.402;0.016;2023-02-15T08:47:33;88.43;;;46.10;;
44774;SDS011;31340;51.402;0.016;2023-02-15T08:50:01;101.13;;;47.17;;
44774;SDS011;31340;51.402;0.016;2023-02-15T08:52:34;89.22;;;45.88;;
44774;SDS011;31340;51.402;0.016;2023-02-15T08:55:04;86.88;;;44.72;;
44774;SDS011;31340;51.402;0.016;2023-02-15T08:57:34;86.07;;;44.63;;
44774;SDS011;31340;51.402;0.016;2023-02-15T09:00:11;87.03;;;43.28;;
44774;SDS011;31340;51.402;0.016;2023-02-15T09:02:42;85.60;;;44.80;;
44774;SDS011;31340;51.402;0.016;2023-02-15T09:05:13;81.07;;;42.90;;
44774;SDS011;31340;51.402;0.016;2023-02-15T09:07:41;88.15;;;47.13;;
44774;SDS011;31340;51.402;0.016;2023-02-15T09:10:09;87.95;;;43.15;;
44774;SDS011;31340;51.402;0.016;2023-02-15T09:12:38;84.43;;;43.53;;
44774;SDS011;31340;51.402;0.016;2023-02-15T09:15:08;84.05;;;42.70;;
44774;SDS011;31340;51.402;0.016;2023-02-15T09:17:36;85.35;;;42.03;;
44774;SDS011;31340;51.402;0.016;2023-02-15T09:20:05;77.43;;;42.22;;
44774;SDS011;31340;51.402;0.016;2023-02-15T09:22:39;77.32;;;39.95;;
44774;SDS011;31340;51.402;0.016;2023-02-15T09:25:16;73.63;;;38.75;;
44774;SDS011;31340;51.402;0.016;2023-02-15T09:27:51;71.28;;;38.50;;
44774;SDS011;31340;51.402;0.016;2023-02-15T09:30:23;75.35;;;38.33;;
44774;SDS011;31340;51.402;0.016;2023-02-15T09:32:57;65.50;;;35.30;;
44774;SDS011;31340;51.402;0.016;2023-02-15T09:35:46;76.80;;;37.25;;
44774;SDS011;31340;51.402;0.016;2023-02-15T09:38:27;61.58;;;35.00;;
44774;SDS011;31340;51.402;0.016;2023-02-15T09:41:05;66.70;;;34.70;;
44774;SDS011;31340;51.402;0.016;2023-02-15T09:55:09;52.17;;;30.63;;
44774;SDS011;31340;51.402;0.016;2023-02-15T10:20:45;51.80;;;30.10;;
44774;SDS011;31340;51.402;0.016;2023-02-15T10:26:27;48.97;;;28.52;;
44774;SDS011;31340;51.402;0.016;2023-02-15T10:32:16;47.65;;;27.40;;
44774;SDS011;31340;51.402;0.016;2023-02-15T10:49:30;46.85;;;25.58;;
44774;SDS011;31340;51.402;0.016;2023-02-15T10:54:48;47.10;;;24.65;;
44774;SDS011;31340;51.402;0.016;2023-02-15T11:00:41;44.40;;;23.63;;
44774;SDS011;31340;51.402;0.016;2023-02-15T11:08:42;41.50;;;21.70;;
44774;SDS011;31340;51.402;0.016;2023-02-15T11:11:15;36.92;;;21.42;;
44774;SDS011;31340;51.402;0.016;2023-02-15T11:14:21;37.10;;;21.60;;
44774;SDS011;31340;51.402;0.016;2023-02-15T11:17:04;36.15;;;20.75;;
44774;SDS011;31340;51.402;0.016;2023-02-15T11:19:41;36.30;;;21.02;;
44774;SDS011;31340;51.402;0.016;2023-02-15T11:22:31;35.15;;;20.70;;
44774;SDS011;31340;51.402;0.016;2023-02-15T11:25:01;35.05;;;20.67;;
44774;SDS011;31340;51.402;0.016;2023-02-15T11:27:31;32.88;;;20.52;;
44774;SDS011;31340;51.402;0.016;2023-02-15T11:30:03;42.03;;;22.20;;
44774;SDS011;31340;51.402;0.016;2023-02-15T11:32:44;34.33;;;19.88;;
44774;SDS011;31340;51.402;0.016;2023-02-15T11:38:18;33.63;;;19.10;;
44774;SDS011;31340;51.402;0.016;2023-02-15T11:40:55;35.30;;;19.30;;
44774;SDS011;31340;51.402;0.016;2023-02-15T11:43:33;35.03;;;19.40;;
44774;SDS011;31340;51.402;0.016;2023-02-15T11:46:25;37.90;;;19.33;;
44774;SDS011;31340;51.402;0.016;2023-02-15T11:48:52;35.25;;;18.98;;
44774;SDS011;31340;51.402;0.016;2023-02-15T11:51:23;41.03;;;19.65;;
44774;SDS011;31340;51.402;0.016;2023-02-15T11:53:51;41.72;;;20.30;;
44774;SDS011;31340;51.402;0.016;2023-02-15T11:56:20;35.40;;;18.95;;
44774;SDS011;31340;51.402;0.016;2023-02-15T11:58:58;33.80;;;19.23;;
44774;SDS011;31340;51.402;0.016;2023-02-15T12:01:31;35.40;;;17.70;;
44774;SDS011;31340;51.402;0.016;2023-02-15T12:04:06;36.60;;;17.20;;
44774;SDS011;31340;51.402;0.016;2023-02-15T12:10:25;33.67;;;17.60;;
44774;SDS011;31340;51.402;0.016;2023-02-15T12:13:15;32.30;;;18.38;;
44774;SDS011;31340;51.402;0.016;2023-02-15T12:15:48;26.27;;;14.73;;
44774;SDS011;31340;51.402;0.016;2023-02-15T12:21:08;33.63;;;15.85;;
44774;SDS011;31340;51.402;0.016;2023-02-15T12:23:43;26.25;;;14.80;;
44774;SDS011;31340;51.402;0.016;2023-02-15T12:26:25;27.48;;;14.43;;
44774;SDS011;31340;51.402;0.016;2023-02-15T12:29:00;30.27;;;15.90;;
44774;SDS011;31340;51.402;0.016;2023-02-15T12:31:36;28.17;;;14.90;;
44774;SDS011;31340;51.402;0.016;2023-02-15T12:34:26;24.33;;;14.38;;
44774;SDS011;31340;51.402;0.016;2023-02-15T12:36:57;21.00;;;14.27;;
44774;SDS011;31340;51.402;0.016;2023-02-15T12:39:30;23.30;;;13.43;;
44774;SDS011;31340;51.402;0.016;2023-02-15T12:42:08;26.30;;;14.90;;
44774;SDS011;31340;51.402;0.016;2023-02-15T12:44:58;23.70;;;15.00;;
44774;SDS011;31340;51.402;0.016;2023-02-15T12:47:46;26.77;;;13.55;;
44774;SDS011;31340;51.402;0.016;2023-02-15T12:50:34;20.42;;;12.75;;
44774;SDS011;31340;51.402;0.016;2023-02-15T12:53:07;30.52;;;14.68;;
44774;SDS011;31340;51.402;0.016;2023-02-15T12:56:05;26.27;;;14.32;;
44774;SDS011;31340;51.402;0.016;2023-02-15T12:58:38;26.30;;;13.73;;
44774;SDS011;31340;51.402;0.016;2023-02-15T13:01:17;20.48;;;12.63;;
44774;SDS011;31340;51.402;0.016;2023-02-15T13:06:26;24.42;;;13.65;;
44774;SDS011;31340;51.402;0.016;2023-02-15T13:08:58;22.45;;;12.93;;
44774;SDS011;31340;51.402;0.016;2023-02-15T13:11:46;28.00;;;14.07;;
44774;SDS011;31340;51.402;0.016;2023-02-15T13:16:49;24.90;;;13.95;;
44774;SDS011;31340;51.402;0.016;2023-02-15T13:19:31;25.23;;;12.95;;
44774;SDS011;31340;51.402;0.016;2023-02-15T13:22:08;25.05;;;12.95;;
44774;SDS011;31340;51.402;0.016;2023-02-15T13:24:59;25.77;;;13.30;;
44774;SDS011;31340;51.402;0.016;2023-02-15T13:27:39;23.20;;;13.38;;
44774;SDS011;31340;51.402;0.016;2023-02-15T13:30:23;19.15;;;12.95;;
44774;SDS011;31340;51.402;0.016;2023-02-15T13:32:55;21.58;;;12.77;;
44774;SDS011;31340;51.402;0.016;2023-02-15T13:35:29;20.90;;;12.55;;
44774;SDS011;31340;51.402;0.016;2023-02-15T13:38:20;21.13;;;12.65;;
44774;SDS011;31340;51.402;0.016;2023-02-15T13:40:58;26.85;;;13.25;;
44774;SDS011;31340;51.402;0.016;2023-02-15T13:49:49;18.75;;;10.73;;
44774;SDS011;31340;51.402;0.016;2023-02-15T13:52:26;22.83;;;10.77;;
44774;SDS011;31340;51.402;0.016;2023-02-15T14:00:57;27.63;;;9.60;;
44774;SDS011;31340;51.402;0.016;2023-02-15T14:06:29;22.20;;;10.02;;
44774;SDS011;31340;51.402;0.016;2023-02-15T14:17:54;17.02;;;8.82;;
44774;SDS011;31340;51.402;0.016;2023-02-15T14:26:06;22.85;;;10.38;;
44774;SDS011;31340;51.402;0.016;2023-02-15T14:31:54;20.98;;;10.20;;
44774;SDS011;31340;51.402;0.016;2023-02-15T14:37:03;18.25;;;8.20;;
44774;SDS011;31340;51.402;0.016;2023-02-15T14:45:31;17.75;;;9.13;;
44774;SDS011;31340;51.402;0.016;2023-02-15T14:48:24;21.27;;;9.82;;
44774;SDS011;31340;51.402;0.016;2023-02-15T14:50:59;17.52;;;8.05;;
44774;SDS011;31340;51.402;0.016;2023-02-15T15:01:30;17.77;;;8.52;;
44774;SDS011;31340;51.402;0.016;2023-02-15T15:04:05;15.07;;;8.77;;
44774;SDS011;31340;51.402;0.016;2023-02-15T15:07:26;19.65;;;10.88;;
44774;SDS011;31340;51.402;0.016;2023-02-15T15:12:54;22.27;;;12.13;;
44774;SDS011;31340;51.402;0.016;2023-02-15T15:17:57;23.95;;;9.20;;
44774;SDS011;31340;51.402;0.016;2023-02-15T15:20:43;22.48;;;8.35;;
44774;SDS011;31340;51.402;0.016;2023-02-15T15:26:21;13.82;;;7.97;;
44774;SDS011;31340;51.402;0.016;2023-02-15T15:29:12;19.27;;;8.40;;
44774;SDS011;31340;51.402;0.016;2023-02-15T15:32:09;23.08;;;9.32;;
44774;SDS011;31340;51.402;0.016;2023-02-15T15:37:51;17.95;;;8.90;;
44774;SDS011;31340;51.402;0.016;2023-02-15T15:49:49;22.13;;;7.60;;
44774;SDS011;31340;51.402;0.016;2023-02-15T15:52:26;20.30;;;8.05;;
44774;SDS011;31340;51.402;0.016;2023-02-15T15:55:14;14.70;;;7.70;;
44774;SDS011;31340;51.402;0.016;2023-02-15T15:57:52;22.33;;;8.25;;
44774;SDS011;31340;51.402;0.016;2023-02-15T16:03:00;20.08;;;8.30;;
44774;SDS011;31340;51.402;0.016;2023-02-15T16:05:37;20.03;;;9.23;;
44774;SDS011;31340;51.402;0.016;2023-02-15T16:08:05;21.00;;;9.63;;
44774;SDS011;31340;51.402;0.016;2023-02-15T16:10:33;18.83;;;10.23;;
44774;SDS011;31340;51.402;0.016;2023-02-15T16:13:04;25.15;;;9.60;;
44774;SDS011;31340;51.402;0.016;2023-02-15T16:15:42;22.20;;;9.90;;
44774;SDS011;31340;51.402;0.016;2023-02-15T16:21:26;22.13;;;10.00;;
44774;SDS011;31340;51.402;0.016;2023-02-15T16:29:32;24.30;;;9.32;;
44774;SDS011;31340;51.402;0.016;2023-02-15T16:32:03;17.40;;;8.63;;
44774;SDS011;31340;51.402;0.016;2023-02-15T16:34:52;18.83;;;9.38;;
44774;SDS011;31340;51.402;0.016;2023-02-15T16:37:25;22.70;;;9.38;;
44774;SDS011;31340;51.402;0.016;2023-02-15T16:39:57;16.20;;;8.90;;
44774;SDS011;31340;51.402;0.016;2023-02-15T16:42:29;23.50;;;9.77;;
44774;SDS011;31340;51.402;0.016;2023-02-15T16:47:28;19.70;;;9.52;;
44774;SDS011;31340;51.402;0.016;2023-02-15T16:49:59;20.27;;;9.85;;
44774;SDS011;31340;51.402;0.016;2023-02-15T16:52:29;19.48;;;9.68;;
44774;SDS011;31340;51.402;0.016;2023-02-15T16:55:04;25.08;;;10.35;;
44774;SDS011;31340;51.402;0.016;2023-02-15T16:57:36;23.02;;;10.68;;
44774;SDS011;31340;51.402;0.016;2023-02-15T17:00:24;21.00;;;10.13;;
44774;SDS011;31340;51.402;0.016;2023-02-15T17:05:33;25.83;;;11.07;;
44774;SDS011;31340;51.402;0.016;2023-02-15T17:08:15;24.85;;;11.15;;
44774;SDS011;31340;51.402;0.016;2023-02-15T17:13:39;22.17;;;10.20;;
44774;SDS011;31340;51.402;0.016;2023-02-15T17:16:30;20.25;;;10.05;;
44774;SDS011;31340;51.402;0.016;2023-02-15T17:19:08;17.67;;;10.02;;
44774;SDS011;31340;51.402;0.016;2023-02-15T17:21:49;21.58;;;10.02;;
44774;SDS011;31340;51.402;0.016;2023-02-15T17:24:36;23.52;;;9.60;;
44774;SDS011;31340;51.402;0.016;2023-02-15T17:29:52;23.08;;;11.32;;
44774;SDS011;31340;51.402;0.016;2023-02-15T17:32:25;23.40;;;10.32;;
44774;SDS011;31340;51.402;0.016;2023-02-15T17:37:32;25.65;;;10.90;;
44774;SDS011;31340;51.402;0.016;2023-02-15T17:40:23;22.23;;;12.20;;
44774;SDS011;31340;51.402;0.016;2023-02-15T17:42:56;20.70;;;11.27;;
44774;SDS011;31340;51.402;0.016;2023-02-15T17:45:25;22.27;;;10.90;;
44774;SDS011;31340;51.402;0.016;2023-02-15T17:48:00;23.10;;;11.82;;
44774;SDS011;31340;51.402;0.016;2023-02-15T17:50:30;27.67;;;12.35;;
44774;SDS011;31340;51.402;0.016;2023-02-15T17:52:59;29.77;;;13.40;;
44774;SDS011;31340;51.402;0.016;2023-02-15T17:55:28;26.63;;;12.48;;
44774;SDS011;31340;51.402;0.016;2023-02-15T17:58:03;24.40;;;12.30;;
44774;SDS011;31340;51.402;0.016;2023-02-15T18:00:52;27.02;;;13.20;;
44774;SDS011;31340;51.402;0.016;2023-02-15T18:06:34;24.20;;;11.57;;
44774;SDS011;31340;51.402;0.016;2023-02-15T18:09:24;28.37;;;12.53;;
44774;SDS011;31340;51.402;0.016;2023-02-15T18:12:21;30.08;;;12.02;;
44774;SDS011;31340;51.402;0.016;2023-02-15T18:14:57;26.00;;;12.82;;
44774;SDS011;31340;51.402;0.016;2023-02-15T18:17:29;21.35;;;11.60;;
44774;SDS011;31340;51.402;0.016;2023-02-15T18:20:01;26.42;;;11.70;;
44774;SDS011;31340;51.402;0.016;2023-02-15T18:22:36;26.33;;;11.65;;
44774;SDS011;31340;51.402;0.016;2023-02-15T18:25:15;30.35;;;13.70;;
44774;SDS011;31340;51.402;0.016;2023-02-15T18:27:48;29.70;;;16.30;;
44774;SDS011;31340;51.402;0.016;2023-02-15T18:30:23;36.72;;;17.23;;
44774;SDS011;31340;51.402;0.016;2023-02-15T18:32:56;32.53;;;16.50;;